createdAt,value
2019-03-15T00:00:37.970Z,1021.7
2019-03-15T00:01:18.648Z,1021.69
2019-03-15T00:01:59.328Z,1021.73
2019-03-15T00:02:39.940Z,1021.76
2019-03-15T00:03:20.542Z,1021.79
2019-03-15T00:04:01.175Z,1021.83
2019-03-15T00:04:41.764Z,1021.8
2019-03-15T00:05:22.392Z,1021.8
2019-03-15T00:06:02.974Z,1021.8
2019-03-15T00:06:43.570Z,1021.83
2019-03-15T00:07:24.172Z,1021.84
2019-03-15T00:08:04.801Z,1021.79
2019-03-15T00:08:45.430Z,1021.84
2019-03-15T00:09:26.013Z,1021.8
2019-03-15T00:10:06.637Z,1021.84
2019-03-15T00:10:47.251Z,1021.84
2019-03-15T00:11:27.864Z,1021.81
2019-03-15T00:12:08.452Z,1021.82
2019-03-15T00:12:49.056Z,1021.8
2019-03-15T00:13:29.663Z,1021.8
2019-03-15T00:14:10.252Z,1021.79
2019-03-15T00:14:51.022Z,1021.77
2019-03-15T00:15:31.684Z,1021.75
2019-03-15T00:16:12.290Z,1021.77
2019-03-15T00:16:52.950Z,1021.73
2019-03-15T00:17:33.549Z,1021.76
2019-03-15T00:18:14.217Z,1021.73
2019-03-15T00:18:54.807Z,1021.72
2019-03-15T00:19:35.400Z,1021.68
2019-03-15T00:20:15.978Z,1021.68
2019-03-15T00:20:56.581Z,1021.66
2019-03-15T00:21:37.167Z,1021.63
2019-03-15T00:22:17.766Z,1021.66
2019-03-15T00:22:58.372Z,1021.6
2019-03-15T00:23:38.970Z,1021.56
2019-03-15T00:24:19.628Z,1021.54
2019-03-15T00:25:00.303Z,1021.55
2019-03-15T00:25:40.835Z,1021.52
2019-03-15T00:26:21.478Z,1021.5
2019-03-15T00:27:02.330Z,1021.53
2019-03-15T00:27:42.972Z,1021.56
2019-03-15T00:28:23.604Z,1021.56
2019-03-15T00:29:04.212Z,1021.58
2019-03-15T00:29:44.810Z,1021.64
2019-03-15T00:30:25.430Z,1021.62
2019-03-15T00:31:06.301Z,1021.62
2019-03-15T00:31:47.085Z,1021.64
2019-03-15T00:32:27.712Z,1021.65
2019-03-15T00:33:08.321Z,1021.64
2019-03-15T00:33:48.942Z,1021.67
2019-03-15T00:34:29.592Z,1021.63
2019-03-15T00:35:10.250Z,1021.64
2019-03-15T00:35:50.850Z,1021.63
2019-03-15T00:36:31.478Z,1021.68
2019-03-15T00:37:12.054Z,1021.65
2019-03-15T00:37:52.684Z,1021.67
2019-03-15T00:38:33.294Z,1021.66
2019-03-15T00:39:13.880Z,1021.68
2019-03-15T00:39:54.464Z,1021.62
2019-03-15T00:40:35.086Z,1021.64
2019-03-15T00:41:15.678Z,1021.58
2019-03-15T00:41:56.270Z,1021.64
2019-03-15T00:42:36.856Z,1021.6
2019-03-15T00:43:17.450Z,1021.59
2019-03-15T00:43:58.053Z,1021.6
2019-03-15T00:44:38.668Z,1021.57
2019-03-15T00:45:19.264Z,1021.56
2019-03-15T00:45:59.872Z,1021.55
2019-03-15T00:46:40.476Z,1021.52
2019-03-15T00:47:21.061Z,1021.55
2019-03-15T00:48:01.664Z,1021.55
2019-03-15T00:48:42.246Z,1021.57
2019-03-15T00:49:22.836Z,1021.58
2019-03-15T00:50:03.435Z,1021.54
2019-03-15T00:50:44.022Z,1021.55
2019-03-15T00:51:24.732Z,1021.6
2019-03-15T00:52:05.366Z,1021.57
2019-03-15T00:52:45.990Z,1021.59
2019-03-15T00:53:26.594Z,1021.63
2019-03-15T00:54:07.199Z,1021.66
2019-03-15T00:54:47.796Z,1021.71
2019-03-15T00:55:28.386Z,1021.7
2019-03-15T00:56:08.995Z,1021.71
2019-03-15T00:56:49.630Z,1021.68
2019-03-15T00:57:30.220Z,1021.68
2019-03-15T00:58:10.830Z,1021.67
2019-03-15T00:58:51.448Z,1021.62
2019-03-15T00:59:32.064Z,1021.62
2019-03-15T01:00:12.666Z,1021.61
2019-03-15T01:00:53.284Z,1021.52
2019-03-15T01:01:33.894Z,1021.54
2019-03-15T01:02:14.490Z,1021.53
2019-03-15T01:02:55.084Z,1021.5
2019-03-15T01:03:35.682Z,1021.47
2019-03-15T01:04:16.298Z,1021.45
2019-03-15T01:04:56.886Z,1021.44
2019-03-15T01:05:37.484Z,1021.4
2019-03-15T01:06:18.133Z,1021.42
2019-03-15T01:06:58.762Z,1021.43
2019-03-15T01:07:39.386Z,1021.42
2019-03-15T01:08:20.018Z,1021.42
2019-03-15T01:09:00.636Z,1021.48
2019-03-15T01:09:41.258Z,1021.44
2019-03-15T01:10:21.896Z,1021.49
2019-03-15T01:11:02.608Z,1021.48
2019-03-15T01:11:45.466Z,1021.55
2019-03-15T01:12:23.788Z,1021.53
2019-03-15T01:13:04.396Z,1021.53
2019-03-15T01:13:44.997Z,1021.56
2019-03-15T01:14:25.672Z,1021.59
2019-03-15T01:15:06.292Z,1021.56
2019-03-15T01:15:46.944Z,1021.6
2019-03-15T01:16:27.512Z,1021.54
2019-03-15T01:17:08.105Z,1021.53
2019-03-15T01:17:48.768Z,1021.54
2019-03-15T01:18:29.381Z,1021.51
2019-03-15T01:19:10.621Z,1021.48
2019-03-15T01:19:50.608Z,1021.48
2019-03-15T01:20:31.210Z,1021.51
2019-03-15T01:21:11.800Z,1021.49
2019-03-15T01:21:52.390Z,1021.48
2019-03-15T01:22:32.982Z,1021.48
2019-03-15T01:23:13.584Z,1021.49
2019-03-15T01:23:54.193Z,1021.49
2019-03-15T01:24:34.786Z,1021.45
2019-03-15T01:25:15.386Z,1021.48
2019-03-15T01:25:55.984Z,1021.49
2019-03-15T01:26:36.566Z,1021.52
2019-03-15T01:27:17.156Z,1021.54
2019-03-15T01:27:57.812Z,1021.54
2019-03-15T01:28:38.450Z,1021.46
2019-03-15T01:29:19.129Z,1021.47
2019-03-15T01:29:59.732Z,1021.46
2019-03-15T01:30:40.345Z,1021.43
2019-03-15T01:31:20.980Z,1021.43
2019-03-15T01:32:01.629Z,1021.43
2019-03-15T01:32:42.258Z,1021.43
2019-03-15T01:33:22.916Z,1021.38
2019-03-15T01:34:03.556Z,1021.37
2019-03-15T01:34:44.180Z,1021.35
2019-03-15T01:35:24.784Z,1021.3
2019-03-15T01:36:05.396Z,1021.27
2019-03-15T01:36:46.016Z,1021.32
2019-03-15T01:37:26.592Z,1021.29
2019-03-15T01:38:07.184Z,1021.27
2019-03-15T01:38:47.806Z,1021.27
2019-03-15T01:39:28.386Z,1021.27
2019-03-15T01:40:09.030Z,1021.26
2019-03-15T01:40:49.645Z,1021.19
2019-03-15T01:41:30.306Z,1021.18
2019-03-15T01:42:10.856Z,1021.17
2019-03-15T01:42:51.520Z,1021.17
2019-03-15T01:43:32.094Z,1021.15
2019-03-15T01:44:12.680Z,1021.13
2019-03-15T01:44:53.378Z,1021.09
2019-03-15T01:45:33.858Z,1021.1
2019-03-15T01:46:14.500Z,1021.06
2019-03-15T01:46:55.152Z,1021.03
2019-03-15T01:47:35.750Z,1021.03
2019-03-15T01:48:16.917Z,1020.98
2019-03-15T01:48:57.015Z,1021
2019-03-15T01:49:37.657Z,1020.98
2019-03-15T01:50:18.282Z,1021.01
2019-03-15T01:50:58.882Z,1021.03
2019-03-15T01:51:39.466Z,1021.04
2019-03-15T01:52:20.076Z,1021.05
2019-03-15T01:53:00.710Z,1021.09
2019-03-15T01:53:41.350Z,1021.07
2019-03-15T01:54:21.958Z,1021.07
2019-03-15T01:55:02.548Z,1021.08
2019-03-15T01:55:43.161Z,1021.09
2019-03-15T01:56:23.832Z,1021.12
2019-03-15T01:57:04.498Z,1021.14
2019-03-15T01:57:45.097Z,1021.14
2019-03-15T01:58:25.700Z,1021.13
2019-03-15T01:59:06.386Z,1021.19
2019-03-15T01:59:46.944Z,1021.17
2019-03-15T02:00:27.562Z,1021.19
2019-03-15T02:01:08.172Z,1021.15
2019-03-15T02:01:48.775Z,1021.17
2019-03-15T02:02:29.484Z,1021.13
2019-03-15T02:03:10.130Z,1021.08
2019-03-15T02:03:50.760Z,1021.06
2019-03-15T02:04:31.761Z,1021.08
2019-03-15T02:05:11.952Z,1021.07
2019-03-15T02:05:52.540Z,1021.08
2019-03-15T02:06:33.177Z,1021.06
2019-03-15T02:07:13.771Z,1021.06
2019-03-15T02:07:54.378Z,1021.03
2019-03-15T02:08:35.062Z,1020.99
2019-03-15T02:09:15.682Z,1021
2019-03-15T02:09:56.414Z,1021.03
2019-03-15T02:10:37.560Z,1021.07
2019-03-15T02:11:17.718Z,1021.02
2019-03-15T02:11:58.302Z,1021.03
2019-03-15T02:12:39.086Z,1021.02
2019-03-15T02:13:19.492Z,1021.01
2019-03-15T02:14:00.118Z,1021.04
2019-03-15T02:14:40.812Z,1021.05
2019-03-15T02:15:21.451Z,1021.09
2019-03-15T02:16:02.057Z,1021.08
2019-03-15T02:16:42.696Z,1021.06
2019-03-15T02:17:23.413Z,1021.08
2019-03-15T02:18:04.172Z,1021.03
2019-03-15T02:18:44.639Z,1021.05
2019-03-15T02:19:25.271Z,1021.05
2019-03-15T02:20:05.842Z,1021.06
2019-03-15T02:20:46.467Z,1021.04
2019-03-15T02:21:27.087Z,1021.03
2019-03-15T02:22:08.418Z,1021.04
2019-03-15T02:22:48.336Z,1021.01
2019-03-15T02:23:28.994Z,1021.02
2019-03-15T02:24:09.688Z,1020.99
2019-03-15T02:24:50.316Z,1020.97
2019-03-15T02:25:30.962Z,1020.99
2019-03-15T02:26:11.560Z,1020.98
2019-03-15T02:26:52.200Z,1020.95
2019-03-15T02:27:32.843Z,1020.93
2019-03-15T02:28:13.473Z,1020.95
2019-03-15T02:28:54.254Z,1020.91
2019-03-15T02:29:34.682Z,1020.9
2019-03-15T02:30:15.292Z,1020.91
2019-03-15T02:30:55.953Z,1020.85
2019-03-15T02:31:36.636Z,1020.85
2019-03-15T02:32:17.267Z,1020.84
2019-03-15T02:32:57.867Z,1020.81
2019-03-15T02:33:38.486Z,1020.79
2019-03-15T02:34:19.082Z,1020.81
2019-03-15T02:34:59.737Z,1020.8
2019-03-15T02:35:40.344Z,1020.84
2019-03-15T02:36:20.942Z,1020.79
2019-03-15T02:37:01.536Z,1020.81
2019-03-15T02:37:42.202Z,1020.78
2019-03-15T02:38:22.842Z,1020.75
2019-03-15T02:39:03.390Z,1020.76
2019-03-15T02:39:43.986Z,1020.76
2019-03-15T02:40:24.586Z,1020.73
2019-03-15T02:41:05.460Z,1020.74
2019-03-15T02:41:45.782Z,1020.7
2019-03-15T02:42:26.593Z,1020.75
2019-03-15T02:43:06.959Z,1020.76
2019-03-15T02:43:47.557Z,1020.73
2019-03-15T02:44:28.151Z,1020.72
2019-03-15T02:45:08.768Z,1020.71
2019-03-15T02:45:49.352Z,1020.7
2019-03-15T02:46:30.085Z,1020.74
2019-03-15T02:47:10.672Z,1020.7
2019-03-15T02:47:51.253Z,1020.71
2019-03-15T02:48:31.833Z,1020.67
2019-03-15T02:49:12.425Z,1020.67
2019-03-15T02:49:53.169Z,1020.7
2019-03-15T02:50:33.644Z,1020.65
2019-03-15T02:51:14.245Z,1020.68
2019-03-15T02:51:54.832Z,1020.68
2019-03-15T02:52:35.430Z,1020.69
2019-03-15T02:53:16.039Z,1020.71
2019-03-15T02:53:56.707Z,1020.71
2019-03-15T02:54:37.310Z,1020.67
2019-03-15T02:55:17.937Z,1020.71
2019-03-15T02:55:58.532Z,1020.69
2019-03-15T02:56:39.117Z,1020.72
2019-03-15T02:57:19.720Z,1020.75
2019-03-15T02:58:00.353Z,1020.74
2019-03-15T02:58:40.943Z,1020.76
2019-03-15T02:59:21.554Z,1020.78
2019-03-15T03:00:02.131Z,1020.77
2019-03-15T03:00:42.738Z,1020.78
2019-03-15T03:01:23.323Z,1020.77
2019-03-15T03:02:03.923Z,1020.77
2019-03-15T03:02:44.509Z,1020.74
2019-03-15T03:03:25.112Z,1020.75
2019-03-15T03:04:05.705Z,1020.72
2019-03-15T03:04:46.317Z,1020.69
2019-03-15T03:05:26.918Z,1020.7
2019-03-15T03:06:07.515Z,1020.69
2019-03-15T03:06:48.112Z,1020.73
2019-03-15T03:07:28.719Z,1020.72
2019-03-15T03:08:09.318Z,1020.71
2019-03-15T03:08:49.931Z,1020.73
2019-03-15T03:09:30.506Z,1020.7
2019-03-15T03:10:11.119Z,1020.71
2019-03-15T03:10:51.712Z,1020.75
2019-03-15T03:11:32.327Z,1020.74
2019-03-15T03:12:12.944Z,1020.76
2019-03-15T03:12:53.526Z,1020.75
2019-03-15T03:13:34.134Z,1020.7
2019-03-15T03:14:14.715Z,1020.7
2019-03-15T03:14:55.317Z,1020.69
2019-03-15T03:15:35.948Z,1020.71
2019-03-15T03:16:17.817Z,1020.67
2019-03-15T03:16:57.155Z,1020.66
2019-03-15T03:17:37.770Z,1020.7
2019-03-15T03:18:18.371Z,1020.68
2019-03-15T03:18:58.962Z,1020.68
2019-03-15T03:19:39.549Z,1020.71
2019-03-15T03:20:21.011Z,1020.68
2019-03-15T03:21:00.751Z,1020.7
2019-03-15T03:21:42.184Z,1020.73
2019-03-15T03:22:21.946Z,1020.75
2019-03-15T03:23:03.571Z,1020.73
2019-03-15T03:23:43.169Z,1020.78
2019-03-15T03:24:24.535Z,1020.79
2019-03-15T03:25:04.356Z,1020.83
2019-03-15T03:25:44.967Z,1020.87
2019-03-15T03:26:25.542Z,1020.88
2019-03-15T03:27:07.321Z,1020.87
2019-03-15T03:27:46.720Z,1020.89
2019-03-15T03:28:27.906Z,1020.86
2019-03-15T03:29:07.943Z,1020.89
2019-03-15T03:29:48.592Z,1020.86
2019-03-15T03:30:29.147Z,1020.88
2019-03-15T03:31:09.742Z,1020.91
2019-03-15T03:31:50.414Z,1020.9
2019-03-15T03:32:31.066Z,1020.9
2019-03-15T03:33:12.627Z,1020.9
2019-03-15T03:33:52.237Z,1020.85
2019-03-15T03:34:32.826Z,1020.88
2019-03-15T03:35:13.438Z,1020.9
2019-03-15T03:35:54.033Z,1020.88
2019-03-15T03:36:34.617Z,1020.89
2019-03-15T03:37:15.244Z,1020.93
2019-03-15T03:37:55.833Z,1020.94
2019-03-15T03:38:36.423Z,1020.95
2019-03-15T03:39:17.019Z,1020.88
2019-03-15T03:39:57.619Z,1020.91
2019-03-15T03:40:38.219Z,1020.95
2019-03-15T03:41:18.810Z,1020.93
2019-03-15T03:41:59.418Z,1020.96
2019-03-15T03:42:40.024Z,1021
2019-03-15T03:43:20.623Z,1021.02
2019-03-15T03:44:01.230Z,1021.04
2019-03-15T03:44:41.827Z,1021.04
2019-03-15T03:45:23.426Z,1021.02
2019-03-15T03:46:03.001Z,1021.05
2019-03-15T03:46:43.599Z,1021.06
2019-03-15T03:47:24.189Z,1021.01
2019-03-15T03:48:04.788Z,1021.03
2019-03-15T03:48:45.378Z,1021.03
2019-03-15T03:49:26.024Z,1021.01
2019-03-15T03:50:06.608Z,1021.03
2019-03-15T03:50:47.200Z,1020.99
2019-03-15T03:51:27.789Z,1021.05
2019-03-15T03:52:10.191Z,1021.03
2019-03-15T03:52:50.808Z,1021.04
2019-03-15T03:53:31.393Z,1021.11
2019-03-15T03:54:11.981Z,1021.11
2019-03-15T03:54:52.586Z,1021.11
2019-03-15T03:55:33.181Z,1021.11
2019-03-15T03:56:13.854Z,1021.14
2019-03-15T03:56:54.672Z,1021.16
2019-03-15T03:57:36.094Z,1021.15
2019-03-15T03:58:15.875Z,1021.17
2019-03-15T03:58:56.475Z,1021.19
2019-03-15T03:59:37.060Z,1021.15
2019-03-15T04:00:17.681Z,1021.18
2019-03-15T04:00:58.283Z,1021.19
2019-03-15T04:01:38.884Z,1021.2
2019-03-15T04:02:19.470Z,1021.2
2019-03-15T04:03:00.070Z,1021.18
2019-03-15T04:03:40.662Z,1021.24
2019-03-15T04:04:21.279Z,1021.27
2019-03-15T04:05:01.869Z,1021.24
2019-03-15T04:05:42.467Z,1021.25
2019-03-15T04:06:23.094Z,1021.27
2019-03-15T04:07:03.704Z,1021.27
2019-03-15T04:07:46.095Z,1021.34
2019-03-15T04:08:26.674Z,1021.33
2019-03-15T04:09:07.265Z,1021.3
2019-03-15T04:09:47.851Z,1021.29
2019-03-15T04:10:28.436Z,1021.37
2019-03-15T04:11:09.178Z,1021.34
2019-03-15T04:11:55.062Z,1021.3
2019-03-15T04:12:30.404Z,1021.33
2019-03-15T04:13:10.995Z,1021.33
2019-03-15T04:13:51.608Z,1021.36
2019-03-15T04:14:32.195Z,1021.34
2019-03-15T04:15:12.795Z,1021.35
2019-03-15T04:15:53.388Z,1021.34
2019-03-15T04:16:34.023Z,1021.33
2019-03-15T04:17:14.670Z,1021.33
2019-03-15T04:17:55.276Z,1021.37
2019-03-15T04:18:35.949Z,1021.34
2019-03-15T04:19:16.476Z,1021.41
2019-03-15T04:19:57.065Z,1021.42
2019-03-15T04:20:37.662Z,1021.42
2019-03-15T04:21:18.253Z,1021.42
2019-03-15T04:21:58.861Z,1021.43
2019-03-15T04:22:39.447Z,1021.46
2019-03-15T04:23:20.041Z,1021.46
2019-03-15T04:24:00.630Z,1021.43
2019-03-15T04:24:41.228Z,1021.38
2019-03-15T04:25:21.820Z,1021.39
2019-03-15T04:26:02.435Z,1021.38
2019-03-15T04:26:43.043Z,1021.39
2019-03-15T04:27:23.631Z,1021.38
2019-03-15T04:28:04.250Z,1021.36
2019-03-15T04:28:44.838Z,1021.39
2019-03-15T04:29:25.434Z,1021.36
2019-03-15T04:30:08.410Z,1021.37
2019-03-15T04:30:46.656Z,1021.33
2019-03-15T04:31:27.296Z,1021.35
2019-03-15T04:32:07.912Z,1021.35
2019-03-15T04:32:50.514Z,1021.38
2019-03-15T04:33:31.124Z,1021.42
2019-03-15T04:34:11.714Z,1021.39
2019-03-15T04:34:52.314Z,1021.39
2019-03-15T04:35:32.906Z,1021.39
2019-03-15T04:36:13.505Z,1021.39
2019-03-15T04:36:54.214Z,1021.37
2019-03-15T04:37:34.722Z,1021.36
2019-03-15T04:38:15.318Z,1021.41
2019-03-15T04:38:56.086Z,1021.4
2019-03-15T04:39:36.534Z,1021.41
2019-03-15T04:40:17.144Z,1021.38
2019-03-15T04:40:57.732Z,1021.38
2019-03-15T04:41:38.347Z,1021.36
2019-03-15T04:42:19.083Z,1021.39
2019-03-15T04:42:59.670Z,1021.38
2019-03-15T04:43:40.278Z,1021.37
2019-03-15T04:44:20.874Z,1021.38
2019-03-15T04:45:01.476Z,1021.36
2019-03-15T04:45:42.097Z,1021.38
2019-03-15T04:46:22.702Z,1021.39
2019-03-15T04:47:03.352Z,1021.41
2019-03-15T04:47:43.976Z,1021.44
2019-03-15T04:48:24.584Z,1021.46
2019-03-15T04:49:05.194Z,1021.45
2019-03-15T04:49:45.796Z,1021.46
2019-03-15T04:50:26.420Z,1021.49
2019-03-15T04:51:07.009Z,1021.53
2019-03-15T04:51:47.613Z,1021.54
2019-03-15T04:52:28.216Z,1021.5
2019-03-15T04:53:08.804Z,1021.5
2019-03-15T04:53:49.470Z,1021.49
2019-03-15T04:54:30.068Z,1021.45
2019-03-15T04:55:10.682Z,1021.46
2019-03-15T04:55:51.269Z,1021.49
2019-03-15T04:56:31.930Z,1021.45
2019-03-15T04:57:12.532Z,1021.43
2019-03-15T04:57:53.140Z,1021.44
2019-03-15T04:58:33.744Z,1021.45
2019-03-15T04:59:14.369Z,1021.47
2019-03-15T04:59:54.964Z,1021.46
2019-03-15T05:00:35.562Z,1021.45
2019-03-15T05:01:16.188Z,1021.5
2019-03-15T05:01:58.345Z,1021.51
2019-03-15T05:02:39.086Z,1021.52
2019-03-15T05:03:19.714Z,1021.51
2019-03-15T05:04:00.360Z,1021.51
2019-03-15T05:04:40.954Z,1021.48
2019-03-15T05:05:21.538Z,1021.43
2019-03-15T05:06:03.732Z,1021.45
2019-03-15T05:06:42.820Z,1021.48
2019-03-15T05:07:23.396Z,1021.45
2019-03-15T05:08:04.039Z,1021.44
2019-03-15T05:08:44.624Z,1021.43
2019-03-15T05:09:25.228Z,1021.46
2019-03-15T05:10:05.865Z,1021.43
2019-03-15T05:10:46.453Z,1021.49
2019-03-15T05:11:27.064Z,1021.44
2019-03-15T05:12:07.666Z,1021.47
2019-03-15T05:12:48.268Z,1021.48
2019-03-15T05:13:28.963Z,1021.51
2019-03-15T05:14:09.475Z,1021.5
2019-03-15T05:14:50.213Z,1021.46
2019-03-15T05:15:30.810Z,1021.46
2019-03-15T05:16:11.400Z,1021.46
2019-03-15T05:16:52.003Z,1021.46
2019-03-15T05:17:32.587Z,1021.44
2019-03-15T05:18:13.188Z,1021.46
2019-03-15T05:18:53.784Z,1021.48
2019-03-15T05:19:34.394Z,1021.49
2019-03-15T05:20:14.992Z,1021.47
2019-03-15T05:20:55.592Z,1021.5
2019-03-15T05:21:36.242Z,1021.46
2019-03-15T05:22:16.814Z,1021.49
2019-03-15T05:22:57.402Z,1021.53
2019-03-15T05:23:38.012Z,1021.57
2019-03-15T05:24:18.598Z,1021.53
2019-03-15T05:24:59.200Z,1021.52
2019-03-15T05:25:39.790Z,1021.52
2019-03-15T05:26:20.456Z,1021.51
2019-03-15T05:27:01.056Z,1021.49
2019-03-15T05:27:41.664Z,1021.51
2019-03-15T05:28:22.298Z,1021.48
2019-03-15T05:29:02.897Z,1021.47
2019-03-15T05:29:43.548Z,1021.49
2019-03-15T05:30:24.178Z,1021.51
2019-03-15T05:31:04.784Z,1021.5
2019-03-15T05:31:45.412Z,1021.52
2019-03-15T05:32:26.022Z,1021.55
2019-03-15T05:33:06.654Z,1021.58
2019-03-15T05:33:47.281Z,1021.58
2019-03-15T05:34:27.842Z,1021.59
2019-03-15T05:35:08.439Z,1021.61
2019-03-15T05:35:49.028Z,1021.55
2019-03-15T05:36:29.658Z,1021.53
2019-03-15T05:37:10.260Z,1021.58
2019-03-15T05:37:50.896Z,1021.57
2019-03-15T05:38:34.650Z,1021.56
2019-03-15T05:39:12.102Z,1021.55
2019-03-15T05:39:52.728Z,1021.6
2019-03-15T05:40:33.342Z,1021.64
2019-03-15T05:41:13.957Z,1021.61
2019-03-15T05:41:54.558Z,1021.59
2019-03-15T05:42:35.148Z,1021.62
2019-03-15T05:43:15.739Z,1021.6
2019-03-15T05:43:56.351Z,1021.6
2019-03-15T05:44:36.946Z,1021.58
2019-03-15T05:45:17.533Z,1021.57
2019-03-15T05:45:58.150Z,1021.61
2019-03-15T05:46:38.742Z,1021.59
2019-03-15T05:47:19.333Z,1021.58
2019-03-15T05:47:59.920Z,1021.58
2019-03-15T05:48:40.516Z,1021.59
2019-03-15T05:49:21.172Z,1021.59
2019-03-15T05:50:01.720Z,1021.6
2019-03-15T05:50:42.338Z,1021.58
2019-03-15T05:51:22.928Z,1021.58
2019-03-15T05:52:03.526Z,1021.58
2019-03-15T05:52:44.144Z,1021.59
2019-03-15T05:53:24.748Z,1021.62
2019-03-15T05:54:05.348Z,1021.63
2019-03-15T05:54:45.948Z,1021.6
2019-03-15T05:55:26.570Z,1021.6
2019-03-15T05:56:07.158Z,1021.59
2019-03-15T05:56:47.742Z,1021.62
2019-03-15T05:57:28.352Z,1021.58
2019-03-15T05:58:08.949Z,1021.56
2019-03-15T05:58:49.542Z,1021.54
2019-03-15T05:59:30.132Z,1021.58
2019-03-15T06:00:10.769Z,1021.56
2019-03-15T06:00:51.358Z,1021.53
2019-03-15T06:01:31.974Z,1021.55
2019-03-15T06:02:12.594Z,1021.56
2019-03-15T06:02:53.204Z,1021.59
2019-03-15T06:03:47.399Z,1021.56
2019-03-15T06:04:14.496Z,1021.59
2019-03-15T06:04:55.081Z,1021.58
2019-03-15T06:05:35.678Z,1021.56
2019-03-15T06:06:16.286Z,1021.53
2019-03-15T06:06:56.888Z,1021.56
2019-03-15T06:07:37.484Z,1021.57
2019-03-15T06:08:18.118Z,1021.57
2019-03-15T06:08:58.708Z,1021.6
2019-03-15T06:09:39.288Z,1021.59
2019-03-15T06:10:19.886Z,1021.6
2019-03-15T06:11:00.547Z,1021.58
2019-03-15T06:11:41.184Z,1021.58
2019-03-15T06:12:21.785Z,1021.6
2019-03-15T06:13:02.379Z,1021.65
2019-03-15T06:13:42.986Z,1021.63
2019-03-15T06:14:23.621Z,1021.56
2019-03-15T06:15:04.415Z,1021.62
2019-03-15T06:15:44.980Z,1021.63
2019-03-15T06:16:25.613Z,1021.63
2019-03-15T06:17:06.246Z,1021.65
2019-03-15T06:17:46.874Z,1021.63
2019-03-15T06:18:27.484Z,1021.65
2019-03-15T06:19:08.111Z,1021.6
2019-03-15T06:19:48.716Z,1021.64
2019-03-15T06:20:29.317Z,1021.63
2019-03-15T06:21:09.918Z,1021.64
2019-03-15T06:21:50.524Z,1021.65
2019-03-15T06:22:31.185Z,1021.67
2019-03-15T06:23:11.790Z,1021.65
2019-03-15T06:23:52.404Z,1021.67
2019-03-15T06:24:33.020Z,1021.64
2019-03-15T06:25:13.594Z,1021.67
2019-03-15T06:25:54.289Z,1021.71
2019-03-15T06:26:34.837Z,1021.7
2019-03-15T06:27:15.432Z,1021.69
2019-03-15T06:27:56.057Z,1021.67
2019-03-15T06:28:36.715Z,1021.73
2019-03-15T06:29:17.274Z,1021.72
2019-03-15T06:29:57.880Z,1021.74
2019-03-15T06:30:38.526Z,1021.71
2019-03-15T06:31:19.199Z,1021.73
2019-03-15T06:31:59.795Z,1021.71
2019-03-15T06:32:40.390Z,1021.76
2019-03-15T06:33:21.014Z,1021.75
2019-03-15T06:34:01.596Z,1021.76
2019-03-15T06:34:42.205Z,1021.78
2019-03-15T06:35:22.828Z,1021.75
2019-03-15T06:36:03.409Z,1021.78
2019-03-15T06:36:44.034Z,1021.78
2019-03-15T06:37:24.630Z,1021.77
2019-03-15T06:38:05.244Z,1021.76
2019-03-15T06:38:45.866Z,1021.72
2019-03-15T06:39:26.480Z,1021.78
2019-03-15T06:40:07.100Z,1021.75
2019-03-15T06:40:47.716Z,1021.75
2019-03-15T06:41:28.413Z,1021.74
2019-03-15T06:42:08.948Z,1021.75
2019-03-15T06:42:49.545Z,1021.73
2019-03-15T06:43:30.166Z,1021.77
2019-03-15T06:44:10.834Z,1021.76
2019-03-15T06:44:57.571Z,1021.77
2019-03-15T06:45:32.145Z,1021.77
2019-03-15T06:46:12.726Z,1021.8
2019-03-15T06:46:53.365Z,1021.77
2019-03-15T06:47:33.996Z,1021.77
2019-03-15T06:48:14.632Z,1021.79
2019-03-15T06:48:55.313Z,1021.78
2019-03-15T06:49:35.849Z,1021.8
2019-03-15T06:50:16.453Z,1021.79
2019-03-15T06:50:57.058Z,1021.76
2019-03-15T06:51:37.664Z,1021.76
2019-03-15T06:52:18.358Z,1021.74
2019-03-15T06:53:01.786Z,1021.72
2019-03-15T06:53:42.384Z,1021.71
2019-03-15T06:54:23.062Z,1021.74
2019-03-15T06:55:05.241Z,1021.7
2019-03-15T06:55:44.334Z,1021.7
2019-03-15T06:56:24.968Z,1021.71
2019-03-15T06:57:06.509Z,1021.72
2019-03-15T06:57:46.214Z,1021.71
2019-03-15T06:58:26.962Z,1021.7
2019-03-15T06:59:07.590Z,1021.7
2019-03-15T06:59:48.262Z,1021.67
2019-03-15T07:00:28.883Z,1021.66
2019-03-15T07:01:09.487Z,1021.63
2019-03-15T07:01:50.661Z,1021.68
2019-03-15T07:02:30.822Z,1021.65
2019-03-15T07:03:11.503Z,1021.64
2019-03-15T07:03:52.065Z,1021.64
2019-03-15T07:04:32.686Z,1021.61
2019-03-15T07:05:13.318Z,1021.62
2019-03-15T07:05:53.903Z,1021.62
2019-03-15T07:06:34.502Z,1021.66
2019-03-15T07:07:15.365Z,1021.68
2019-03-15T07:07:55.698Z,1021.68
2019-03-15T07:08:36.316Z,1021.67
2019-03-15T07:09:16.944Z,1021.69
2019-03-15T07:09:57.542Z,1021.73
2019-03-15T07:10:38.142Z,1021.7
2019-03-15T07:11:18.762Z,1021.69
2019-03-15T07:12:08.818Z,1021.73
2019-03-15T07:12:40.595Z,1021.7
2019-03-15T07:13:20.556Z,1021.7
2019-03-15T07:14:01.162Z,1021.67
2019-03-15T07:14:42.361Z,1021.7
2019-03-15T07:15:22.373Z,1021.72
2019-03-15T07:16:02.987Z,1021.76
2019-03-15T07:16:43.616Z,1021.74
2019-03-15T07:17:24.226Z,1021.73
2019-03-15T07:18:04.833Z,1021.74
2019-03-15T07:18:45.465Z,1021.68
2019-03-15T07:19:30.293Z,1021.71
2019-03-15T07:20:06.682Z,1021.69
2019-03-15T07:20:47.298Z,1021.7
2019-03-15T07:21:27.902Z,1021.73
2019-03-15T07:22:08.508Z,1021.73
2019-03-15T07:22:49.090Z,1021.76
2019-03-15T07:23:29.688Z,1021.72
2019-03-15T07:24:10.340Z,1021.76
2019-03-15T07:24:50.954Z,1021.77
2019-03-15T07:25:31.538Z,1021.78
2019-03-15T07:26:12.158Z,1021.77
2019-03-15T07:26:52.755Z,1021.78
2019-03-15T07:27:33.357Z,1021.76
2019-03-15T07:28:13.950Z,1021.78
2019-03-15T07:28:54.554Z,1021.77
2019-03-15T07:29:35.198Z,1021.75
2019-03-15T07:30:15.814Z,1021.75
2019-03-15T07:30:56.426Z,1021.77
2019-03-15T07:31:37.068Z,1021.86
2019-03-15T07:32:17.681Z,1021.82
2019-03-15T07:32:58.282Z,1021.85
2019-03-15T07:33:38.886Z,1021.81
2019-03-15T07:34:19.506Z,1021.85
2019-03-15T07:35:00.125Z,1021.79
2019-03-15T07:35:40.711Z,1021.83
2019-03-15T07:36:21.292Z,1021.84
2019-03-15T07:37:01.910Z,1021.8
2019-03-15T07:37:45.226Z,1021.76
2019-03-15T07:38:23.108Z,1021.76
2019-03-15T07:39:03.700Z,1021.76
2019-03-15T07:39:44.299Z,1021.78
2019-03-15T07:40:24.922Z,1021.77
2019-03-15T07:41:05.510Z,1021.78
2019-03-15T07:41:46.104Z,1021.81
2019-03-15T07:42:26.698Z,1021.83
2019-03-15T07:43:07.305Z,1021.79
2019-03-15T07:43:47.900Z,1021.85
2019-03-15T07:44:28.535Z,1021.85
2019-03-15T07:45:09.152Z,1021.83
2019-03-15T07:45:49.764Z,1021.87
2019-03-15T07:46:30.358Z,1021.84
2019-03-15T07:47:10.954Z,1021.89
2019-03-15T07:47:51.565Z,1021.88
2019-03-15T07:48:32.170Z,1021.83
2019-03-15T07:49:12.764Z,1021.84
2019-03-15T07:49:53.364Z,1021.86
2019-03-15T07:50:33.952Z,1021.86
2019-03-15T07:51:14.551Z,1021.85
2019-03-15T07:51:55.141Z,1021.86
2019-03-15T07:52:35.737Z,1021.87
2019-03-15T07:53:16.340Z,1021.84
2019-03-15T07:53:56.942Z,1021.84
2019-03-15T07:54:38.497Z,1021.87
2019-03-15T07:55:18.149Z,1021.88
2019-03-15T07:55:58.754Z,1021.87
2019-03-15T07:56:39.419Z,1021.86
2019-03-15T07:57:19.955Z,1021.88
2019-03-15T07:58:00.556Z,1021.86
2019-03-15T07:58:41.161Z,1021.87
2019-03-15T07:59:22.768Z,1021.87
2019-03-15T08:00:02.396Z,1021.87
2019-03-15T08:00:43.004Z,1021.87
2019-03-15T08:01:23.612Z,1021.91
2019-03-15T08:02:04.234Z,1021.89
2019-03-15T08:02:44.838Z,1021.9
2019-03-15T08:03:25.438Z,1021.9
2019-03-15T08:04:16.121Z,1021.87
2019-03-15T08:04:46.621Z,1021.85
2019-03-15T08:05:27.220Z,1021.88
2019-03-15T08:06:07.865Z,1021.87
2019-03-15T08:06:48.458Z,1021.88
2019-03-15T08:07:36.007Z,1021.9
2019-03-15T08:08:09.633Z,1021.86
2019-03-15T08:08:50.247Z,1021.9
2019-03-15T08:09:30.855Z,1021.89
2019-03-15T08:10:11.458Z,1021.91
2019-03-15T08:10:54.798Z,1021.9
2019-03-15T08:11:32.679Z,1021.88
2019-03-15T08:12:13.271Z,1021.94
2019-03-15T08:12:53.868Z,1021.93
2019-03-15T08:13:34.473Z,1021.96